Hartford, Wisconsin
Current Conditions -  °F | °C
As of 7:15 PM on Tuesday 21 Oct 2014 (Local Time) from KETB Reporting Station
Clear Clear  
Wind Chill: 38°   Ceiling: Unl
Heat Index: 41°   Visibility: 10mi
Dew Point: 34°   Wind: 5mph
Humidity: 76%   Direction: 60°ENE
Pressure: 30.25"   Gusts: NA
Location:  43.32°N, 88.38°W
Report Text: KETB 220015Z AUTO 06004KT 10SM CLR 05/01 A3025 RMK AO2
Loading
Personal Weather Stations






























Interactive Weather Map
Tropical Storm Tracking
New forecast layout! Learn more

10-Day Weather Forecast

Advertisements
Track Severe Weather on mobile